Time;durP1;ratioP1;P1;durP2;ratioP2;P2;SDS_P1;SDS_P2;PMS_P1;PMS_P2;Temp;Humidity;BMP_temperature;BMP_pressure;BME280_temperature;BME280_humidity;BME280_pressure;Samples;Min_cycle;Max_cycle;Signal;HPM_P1;HPM_P2
2022/03/20 00:00:53;;;;;;;;;;;;;;;;;;5053581;28;20367;-79
2022/03/20 00:03:19;;;;;;;;;;;;;;;;;;5053683;28;19939;-79
2022/03/20 00:05:44;;;;;;;;;;;;;;;;;;5053244;28;19908;-79
2022/03/20 00:08:09;;;;;;;;;;;;;;;;;;5053233;28;20360;-79
2022/03/20 00:10:35;;;;;;;;;;;;;;;;;;5054024;28;20179;-79
2022/03/20 00:13:01;;;;;;;;;;;;;;;;;;5054543;28;20021;-79
2022/03/20 00:15:27;;;;;;;;;;;;;;;;;;5057408;28;19912;-79
2022/03/20 00:17:52;;;;;;;;;;;;;;;;;;5057414;28;19909;-79
2022/03/20 00:20:18;;;;;;;;;;;;;;;;;;5057161;28;19909;-79
2022/03/20 00:22:43;;;;;;;;;;;;;;;;;;5075504;28;19963;-79
2022/03/20 00:25:08;;;;;;;;;;;;;;;;;;5057347;28;20003;-79
2022/03/20 00:27:33;;;;;;;;;;;;;;;;;;5075480;28;19931;-79
2022/03/20 00:29:58;;;;;;;;;;;;;;;;;;5057198;28;19912;-79
2022/03/20 00:32:23;;;;;;;;;;;;;;;;;;5075476;28;20364;-79
2022/03/20 00:34:49;;;;;;;;;;;;;;;;;;5075245;28;20387;-79
2022/03/20 00:37:14;;;;;;;;;;;;;;;;;;5057382;28;19916;-79
2022/03/20 00:39:39;;;;;;;;;;;;;;;;;;5056727;28;19912;-79
2022/03/20 00:42:04;;;;;;;;;;;;;;;;;;5075218;28;19915;-79
2022/03/20 00:44:29;;;;;;;;;;;;;;;;;;5075390;28;19908;-79
2022/03/20 00:46:54;;;;;;;;;;;;;;;;;;5057050;28;20372;-79
2022/03/20 00:49:20;;;;;;;;;;;;;;;;;;5056401;28;19912;-79
2022/03/20 00:51:45;;;;;;;;;;;;;;;;;;5056351;28;19909;-79
2022/03/20 00:54:10;;;;;;;;;;;;;;;;;;5056705;28;19967;-79
2022/03/20 00:56:36;;;;;;;;;;;;;;;;;;5075054;28;20007;-79
2022/03/20 00:59:01;;;;;;;;;;;;;;;;;;5056537;28;20425;-79
2022/03/20 01:01:28;;;;;;;;;;;;;;;;;;5056786;28;19915;-79
2022/03/20 01:03:53;;;;;;;;;;;;;;;;;;5056676;28;20441;-79
2022/03/20 01:06:18;;;;;;;;;;;;;;;;;;5074711;28;20012;-79
2022/03/20 01:08:43;;;;;;;;;;;;;;;;;;5056353;28;20003;-79
2022/03/20 01:11:09;;;;;;;;;;;;;;;;;;5071001;28;20051;-79
2022/03/20 01:13:34;;;;;;;;;;;;;;;;;;5074196;28;19999;-79
2022/03/20 01:15:59;;;;;;;;;;;;;;;;;;5056253;28;19947;-79
2022/03/20 01:18:27;;;;;;;;;;;;;;;;;;5055984;28;20002;-79
2022/03/20 01:20:52;;;;;;;;;;;;;;;;;;5056642;28;20276;-79
2022/03/20 01:23:20;;;;;;;;;;;;;;;;;;5056507;28;19962;-79
2022/03/20 01:25:46;;;;;;;;;;;;;;;;;;5055922;28;19923;-79
2022/03/20 01:28:11;;;;;;;;;;;;;;;;;;5055586;28;20350;-79
2022/03/20 01:30:36;;;;;;;;;;;;;;;;;;5055940;28;19909;-79
2022/03/20 01:33:01;;;;;;;;;;;;;;;;;;5056220;28;19909;-79
2022/03/20 01:35:27;;;;;;;;;;;;;;;;;;5056463;28;19925;-79
2022/03/20 01:37:52;;;;;;;;;;;;;;;;;;5055546;28;19908;-79
2022/03/20 01:40:17;;;;;;;;;;;;;;;;;;5055975;28;19908;-79
2022/03/20 01:42:43;;;;;;;;;;;;;;;;;;5056012;28;19908;-79
2022/03/20 01:45:08;;;;;;;;;;;;;;;;;;5073858;28;19951;-79
2022/03/20 01:47:33;;;;;;;;;;;;;;;;;;5055834;28;19916;-79
2022/03/20 01:49:58;;;;;;;;;;;;;;;;;;5073729;28;19908;-79
2022/03/20 01:52:25;;;;;;;;;;;;;;;;;;5056135;28;19913;-79
2022/03/20 01:54:50;;;;;;;;;;;;;;;;;;5055800;28;19931;-79
2022/03/20 01:57:20;;;;;;;;;;;;;;;;;;5055968;28;19908;-79
2022/03/20 01:59:45;;;;;;;;;;;;;;;;;;5055108;28;19954;-79
2022/03/20 02:02:11;;;;;;;;;;;;;;;;;;5073098;28;19955;-79
2022/03/20 02:04:36;;;;;;;;;;;;;;;;;;5055584;28;20403;-79
2022/03/20 02:07:02;;;;;;;;;;;;;;;;;;5055438;28;19913;-79
2022/03/20 02:09:27;;;;;;;;;;;;;;;;;;5073360;28;19919;-79
2022/03/20 02:11:52;;;;;;;;;;;;;;;;;;5073394;28;20356;-79
2022/03/20 02:14:17;;;;;;;;;;;;;;;;;;5055570;28;19909;-79
2022/03/20 02:16:42;;;;;;;;;;;;;;;;;;5073320;28;19908;-79
2022/03/20 02:19:07;;;;;;;;;;;;;;;;;;5072738;28;19908;-79
2022/03/20 02:21:32;;;;;;;;;;;;;;;;;;5055384;28;19916;-79
2022/03/20 02:23:57;;;;;;;;;;;;;;;;;;5055214;28;20253;-79
2022/03/20 02:26:22;;;;;;;;;;;;;;;;;;5055407;28;19948;-79
2022/03/20 02:28:47;;;;;;;;;;;;;;;;;;5054740;28;19908;-79
2022/03/20 02:31:13;;;;;;;;;;;;;;;;;;5055093;28;19912;-79
2022/03/20 02:33:38;;;;;;;;;;;;;;;;;;5054799;28;19909;-79
2022/03/20 02:36:03;;;;;;;;;;;;;;;;;;5054493;28;19966;-79
2022/03/20 02:38:28;;;;;;;;;;;;;;;;;;5072797;28;19962;-79
2022/03/20 02:40:54;;;;;;;;;;;;;;;;;;5055242;28;20288;-79
2022/03/20 02:43:19;;;;;;;;;;;;;;;;;;5072775;28;19947;-79
2022/03/20 02:45:44;;;;;;;;;;;;;;;;;;5072757;28;19971;-79
2022/03/20 02:48:10;;;;;;;;;;;;;;;;;;5072424;28;20372;-79
2022/03/20 02:50:35;;;;;;;;;;;;;;;;;;5054941;28;19909;-79
2022/03/20 02:53:01;;;;;;;;;;;;;;;;;;5054752;28;19908;-79
2022/03/20 02:55:26;;;;;;;;;;;;;;;;;;5072731;28;20253;-79
2022/03/20 02:57:51;;;;;;;;;;;;;;;;;;5072323;28;19909;-79
2022/03/20 03:00:21;;;;;;;;;;;;;;;;;;5072535;28;19908;-79
2022/03/20 03:02:46;;;;;;;;;;;;;;;;;;5054687;28;19909;-79
2022/03/20 03:05:11;;;;;;;;;;;;;;;;;;5054556;28;19909;-79
2022/03/20 03:10:55;;;;;;;;;;;;;;;;;;5072482;28;19908;-79
2022/03/20 03:13:05;;;;;;;;;;;;;;;;;;5072642;28;20395;-79
2022/03/20 03:15:30;;;;;;;;;;;;;;;;;;5053850;28;19921;-79
2022/03/20 03:17:56;;;;;;;;;;;;;;;;;;5071961;28;19908;-79
2022/03/20 03:20:21;;;;;;;;;;;;;;;;;;5054406;28;19915;-79
2022/03/20 03:22:46;;;;;;;;;;;;;;;;;;5072196;28;19916;-79
2022/03/20 03:25:11;;;;;;;;;;;;;;;;;;5054041;28;19947;-79
2022/03/20 03:27:36;;;;;;;;;;;;;;;;;;5054061;28;20330;-79
2022/03/20 03:30:01;;;;;;;;;;;;;;;;;;5053200;28;20344;-79
2022/03/20 03:32:26;;;;;;;;;;;;;;;;;;5053681;28;20413;-79
2022/03/20 03:37:35;;;;;;;;;;;;;;;;;;5071834;28;19954;-79
2022/03/20 03:40:00;;;;;;;;;;;;;;;;;;5071475;28;19912;-79
2022/03/20 03:42:26;;;;;;;;;;;;;;;;;;5054286;28;20418;-79
2022/03/20 03:44:51;;;;;;;;;;;;;;;;;;5071896;28;20304;-79
2022/03/20 03:47:16;;;;;;;;;;;;;;;;;;5054596;28;19917;-79
2022/03/20 03:49:41;;;;;;;;;;;;;;;;;;5075355;28;19913;-79
2022/03/20 03:52:06;;;;;;;;;;;;;;;;;;5057597;28;20305;-79
2022/03/20 03:54:31;;;;;;;;;;;;;;;;;;5058067;28;19916;-79
2022/03/20 03:56:57;;;;;;;;;;;;;;;;;;5076268;28;19916;-79
2022/03/20 03:59:22;;;;;;;;;;;;;;;;;;5057478;28;20352;-79
2022/03/20 04:01:47;;;;;;;;;;;;;;;;;;5075516;28;19912;-79
2022/03/20 04:04:14;;;;;;;;;;;;;;;;;;5057695;28;19916;-79
2022/03/20 04:06:39;;;;;;;;;;;;;;;;;;5057636;28;19904;-79
2022/03/20 04:09:04;;;;;;;;;;;;;;;;;;5075402;28;20267;-79
2022/03/20 04:11:29;;;;;;;;;;;;;;;;;;5075742;28;19904;-79
2022/03/20 04:13:54;;;;;;;;;;;;;;;;;;5057678;28;19908;-79
2022/03/20 04:16:19;;;;;;;;;;;;;;;;;;5057424;28;19917;-79
2022/03/20 04:18:44;;;;;;;;;;;;;;;;;;5057462;28;19908;-79
2022/03/20 04:21:10;;;;;;;;;;;;;;;;;;5075691;28;19908;-79
2022/03/20 04:23:49;;;;;;;;;;;;;;;;;;5057718;28;19909;-79
2022/03/20 04:26:17;;;;;;;;;;;;;;;;;;5075270;28;20279;-79
2022/03/20 04:28:44;;;;;;;;;;;;;;;;;;5074952;28;19912;-79
2022/03/20 04:31:09;;;;;;;;;;;;;;;;;;5056761;28;20331;-79
2022/03/20 04:33:34;;;;;;;;;;;;;;;;;;5057168;28;19943;-79
2022/03/20 04:35:59;;;;;;;;;;;;;;;;;;5057124;28;19912;-79
2022/03/20 04:38:26;;;;;;;;;;;;;;;;;;5074692;28;19917;-79
2022/03/20 04:40:51;;;;;;;;;;;;;;;;;;5057007;28;20386;-79
2022/03/20 04:43:17;;;;;;;;;;;;;;;;;;5057009;28;19943;-79
2022/03/20 04:45:42;;;;;;;;;;;;;;;;;;5074940;28;19913;-79
2022/03/20 04:59:03;;;;;;;;;;;;;;;;;;5073837;28;19951;-79
2022/03/20 05:01:28;;;;;;;;;;;;;;;;;;5056832;28;19960;-79
2022/03/20 05:03:53;;;;;;;;;;;;;;;;;;5074859;28;19999;-79
2022/03/20 05:06:18;;;;;;;;;;;;;;;;;;5074643;28;19963;-79
2022/03/20 05:08:43;;;;;;;;;;;;;;;;;;5056226;28;20327;-79
2022/03/20 05:13:52;;;;;;;;;;;;;;;;;;5074284;28;19954;-79
2022/03/20 05:16:18;;;;;;;;;;;;;;;;;;5056169;28;20310;-79
2022/03/20 05:18:44;;;;;;;;;;;;;;;;;;5055708;28;19908;-79
2022/03/20 05:21:10;;;;;;;;;;;;;;;;;;5056125;28;20007;-79
2022/03/20 05:23:35;;;;;;;;;;;;;;;;;;5056307;28;19908;-79
2022/03/20 05:26:00;;;;;;;;;;;;;;;;;;5056066;28;20023;-79
2022/03/20 05:28:25;;;;;;;;;;;;;;;;;;5074042;28;20433;-79
2022/03/20 05:30:51;;;;;;;;;;;;;;;;;;5056307;28;19969;-79
2022/03/20 05:33:16;;;;;;;;;;;;;;;;;;5074291;28;19962;-79
2022/03/20 05:35:43;;;;;;;;;;;;;;;;;;5074156;28;19920;-79
2022/03/20 05:38:08;;;;;;;;;;;;;;;;;;5073512;28;20389;-79
2022/03/20 05:40:33;;;;;;;;;;;;;;;;;;5056196;28;19944;-79
2022/03/20 05:42:59;;;;;;;;;;;;;;;;;;5056185;28;19908;-79
2022/03/20 05:45:24;;;;;;;;;;;;;;;;;;5055584;28;19915;-79
2022/03/20 05:47:49;;;;;;;;;;;;;;;;;;5055574;28;19916;-79
2022/03/20 05:50:15;;;;;;;;;;;;;;;;;;5055741;28;19908;-79
2022/03/20 05:52:40;;;;;;;;;;;;;;;;;;5055593;28;20295;-79
2022/03/20 05:55:05;;;;;;;;;;;;;;;;;;5055755;28;19912;-79
2022/03/20 06:00:17;;;;;;;;;;;;;;;;;;5073936;28;19974;-79
2022/03/20 06:02:43;;;;;;;;;;;;;;;;;;5055735;28;19916;-79
2022/03/20 06:05:08;;;;;;;;;;;;;;;;;;5055526;28;19913;-79
2022/03/20 06:07:33;;;;;;;;;;;;;;;;;;5054758;28;19962;-79
2022/03/20 06:09:58;;;;;;;;;;;;;;;;;;5073196;28;19908;-79
2022/03/20 06:12:23;;;;;;;;;;;;;;;;;;5072690;28;19915;-79
2022/03/20 06:14:48;;;;;;;;;;;;;;;;;;5055217;28;20265;-79
2022/03/20 06:17:15;;;;;;;;;;;;;;;;;;5055487;28;19909;-79
2022/03/20 06:19:42;;;;;;;;;;;;;;;;;;5055036;28;19905;-79
2022/03/20 06:22:07;;;;;;;;;;;;;;;;;;5055423;28;19942;-79
2022/03/20 06:24:32;;;;;;;;;;;;;;;;;;5055423;28;19912;-79
2022/03/20 06:26:57;;;;;;;;;;;;;;;;;;5055299;28;19912;-79
2022/03/20 06:29:22;;;;;;;;;;;;;;;;;;5054737;28;19909;-79
2022/03/20 06:31:50;;;;;;;;;;;;;;;;;;5054858;28;20292;-79
2022/03/20 06:34:15;;;;;;;;;;;;;;;;;;5072795;28;19909;-79
2022/03/20 06:36:40;;;;;;;;;;;;;;;;;;5054760;28;20003;-79
2022/03/20 06:39:05;;;;;;;;;;;;;;;;;;5054580;28;19995;-79
2022/03/20 06:41:31;;;;;;;;;;;;;;;;;;5055152;28;19915;-79
2022/03/20 06:43:56;;;;;;;;;;;;;;;;;;5072874;28;19908;-79
2022/03/20 06:46:21;;;;;;;;;;;;;;;;;;5054796;28;19962;-79
2022/03/20 06:48:46;;;;;;;;;;;;;;;;;;5054476;28;20279;-79
2022/03/20 06:51:11;;;;;;;;;;;;;;;;;;5054547;28;19908;-79
2022/03/20 06:53:36;;;;;;;;;;;;;;;;;;5054503;28;19955;-79
2022/03/20 06:56:02;;;;;;;;;;;;;;;;;;5054447;28;20023;-79
2022/03/20 06:58:28;;;;;;;;;;;;;;;;;;5054467;28;20305;-79
2022/03/20 07:00:53;;;;;;;;;;;;;;;;;;5054311;28;19908;-79
2022/03/20 07:03:18;;;;;;;;;;;;;;;;;;5054123;28;19912;-79
2022/03/20 07:05:44;;;;;;;;;;;;;;;;;;5054436;28;19999;-79
2022/03/20 07:08:09;;;;;;;;;;;;;;;;;;5054211;28;19913;-79
2022/03/20 07:10:34;;;;;;;;;;;;;;;;;;5072481;28;19949;-79
2022/03/20 07:15:44;;;;;;;;;;;;;;;;;;5071824;28;19919;-79
2022/03/20 07:18:09;;;;;;;;;;;;;;;;;;5053649;28;19908;-79
2022/03/20 07:20:34;;;;;;;;;;;;;;;;;;5053988;28;19909;-79
2022/03/20 07:23:00;;;;;;;;;;;;;;;;;;5053635;28;19920;-79
2022/03/20 07:30:56;;;;;;;;;;;;;;;;;;5071925;28;19916;-79
2022/03/20 07:33:21;;;;;;;;;;;;;;;;;;5071061;28;19915;-79
2022/03/20 07:35:47;;;;;;;;;;;;;;;;;;5091698;28;19920;-79
2022/03/20 07:38:12;;;;;;;;;;;;;;;;;;5075028;28;19913;-79
2022/03/20 07:40:37;;;;;;;;;;;;;;;;;;5074200;28;20259;-79
2022/03/20 07:43:02;;;;;;;;;;;;;;;;;;5073228;28;20364;-79
2022/03/20 07:45:27;;;;;;;;;;;;;;;;;;5074768;28;20410;-79
2022/03/20 07:47:52;;;;;;;;;;;;;;;;;;5093063;28;20363;-79
2022/03/20 07:50:17;;;;;;;;;;;;;;;;;;5092902;28;19908;-79
2022/03/20 07:52:44;;;;;;;;;;;;;;;;;;5093036;28;19908;-79
2022/03/20 07:55:09;;;;;;;;;;;;;;;;;;5075229;28;19916;-79
2022/03/20 07:57:34;;;;;;;;;;;;;;;;;;5074781;28;20309;-79
2022/03/20 08:00:00;;;;;;;;;;;;;;;;;;5073588;28;19915;-79
2022/03/20 08:02:25;;;;;;;;;;;;;;;;;;5073604;28;19914;-79
2022/03/20 08:04:52;;;;;;;;;;;;;;;;;;5091836;28;19912;-79
2022/03/20 08:07:19;;;;;;;;;;;;;;;;;;5073391;28;19917;-79
2022/03/20 08:09:44;;;;;;;;;;;;;;;;;;5091915;28;20415;-79
2022/03/20 08:12:10;;;;;;;;;;;;;;;;;;5091484;28;20272;-79
2022/03/20 08:14:36;;;;;;;;;;;;;;;;;;5074562;28;20293;-79
2022/03/20 08:17:01;;;;;;;;;;;;;;;;;;5073847;28;19923;-79
2022/03/20 08:19:27;;;;;;;;;;;;;;;;;;5092329;28;20002;-79
2022/03/20 08:21:52;;;;;;;;;;;;;;;;;;5074813;28;20007;-79
2022/03/20 08:24:17;;;;;;;;;;;;;;;;;;5092018;28;19913;-79
2022/03/20 08:26:42;;;;;;;;;;;;;;;;;;5092327;28;20334;-79
2022/03/20 08:29:10;;;;;;;;;;;;;;;;;;5092246;28;19914;-79
2022/03/20 08:31:35;;;;;;;;;;;;;;;;;;5091803;28;19931;-79
2022/03/20 08:34:00;;;;;;;;;;;;;;;;;;5074241;28;20620;-79
2022/03/20 08:36:26;;;;;;;;;;;;;;;;;;5076947;28;20015;-79
2022/03/20 08:38:51;;;;;;;;;;;;;;;;;;5077339;28;19920;-79
2022/03/20 08:41:16;;;;;;;;;;;;;;;;;;5095921;28;19916;-79
2022/03/20 08:43:41;;;;;;;;;;;;;;;;;;5083668;28;19924;-79
2022/03/20 08:46:06;;;;;;;;;;;;;;;;;;5082139;28;19924;-79
2022/03/20 08:48:31;;;;;;;;;;;;;;;;;;5096319;28;19916;-79
2022/03/20 08:50:56;;;;;;;;;;;;;;;;;;5078012;28;19912;-79
2022/03/20 08:53:22;;;;;;;;;;;;;;;;;;5096589;28;19912;-79
2022/03/20 08:55:47;;;;;;;;;;;;;;;;;;5077820;28;20015;-79
2022/03/20 08:58:13;;;;;;;;;;;;;;;;;;5095501;28;20005;-79
2022/03/20 09:00:38;;;;;;;;;;;;;;;;;;5095757;28;19919;-79
2022/03/20 09:03:03;;;;;;;;;;;;;;;;;;5078031;28;19919;-79
2022/03/20 09:05:28;;;;;;;;;;;;;;;;;;5077854;28;20383;-79
2022/03/20 09:07:55;;;;;;;;;;;;;;;;;;5077461;28;19964;-79
2022/03/20 09:10:20;;;;;;;;;;;;;;;;;;5077706;28;20007;-79
2022/03/20 09:12:45;;;;;;;;;;;;;;;;;;5072232;28;20466;-79
2022/03/20 09:15:12;;;;;;;;;;;;;;;;;;5105027;27;19922;-79
2022/03/20 09:20:20;;;;;;;;;;;;;;;;;;5094367;28;19935;-79
2022/03/20 09:22:45;;;;;;;;;;;;;;;;;;5093737;28;19920;-79
2022/03/20 09:25:10;;;;;;;;;;;;;;;;;;5095307;28;19908;-79
2022/03/20 09:27:36;;;;;;;;;;;;;;;;;;5074256;28;19957;-79
2022/03/20 09:30:01;;;;;;;;;;;;;;;;;;5088916;28;19912;-79
2022/03/20 09:32:26;;;;;;;;;;;;;;;;;;5092203;28;19947;-79
2022/03/20 09:34:51;;;;;;;;;;;;;;;;;;5094655;28;19931;-79
2022/03/20 09:37:16;;;;;;;;;;;;;;;;;;5088529;28;19912;-79
2022/03/20 09:39:41;;;;;;;;;;;;;;;;;;5076224;28;20407;-79
2022/03/20 09:42:06;;;;;;;;;;;;;;;;;;5094184;28;19908;-79
2022/03/20 09:44:34;;;;;;;;;;;;;;;;;;5092784;28;19913;-79
2022/03/20 09:47:00;;;;;;;;;;;;;;;;;;5070566;28;19943;-79
2022/03/20 09:49:25;;;;;;;;;;;;;;;;;;5094837;28;20385;-79
2022/03/20 09:51:50;;;;;;;;;;;;;;;;;;5076331;28;19908;-79
2022/03/20 09:54:16;;;;;;;;;;;;;;;;;;5092945;28;19935;-79
2022/03/20 09:56:41;;;;;;;;;;;;;;;;;;5088593;28;19919;-79
2022/03/20 09:59:06;;;;;;;;;;;;;;;;;;5096066;28;19957;-79
2022/03/20 10:01:32;;;;;;;;;;;;;;;;;;5075163;28;20283;-79
2022/03/20 10:03:57;;;;;;;;;;;;;;;;;;5072199;28;20019;-79
2022/03/20 10:06:22;;;;;;;;;;;;;;;;;;5076410;28;19951;-79
2022/03/20 10:08:47;;;;;;;;;;;;;;;;;;5094224;28;19951;-79
2022/03/20 10:11:12;;;;;;;;;;;;;;;;;;5073255;28;19919;-79
2022/03/20 10:13:37;;;;;;;;;;;;;;;;;;5087569;28;20279;-78
2022/03/20 10:16:03;;;;;;;;;;;;;;;;;;5091742;28;19916;-79
2022/03/20 10:18:28;;;;;;;;;;;;;;;;;;5096823;28;20282;-79
2022/03/20 10:20:53;;;;;;;;;;;;;;;;;;5108215;28;19918;-79
2022/03/20 10:23:18;;;;;;;;;;;;;;;;;;5081181;28;19969;-79
2022/03/20 10:25:43;;;;;;;;;;;;;;;;;;5075068;28;20392;-79
2022/03/20 10:28:08;;;;;;;;;;;;;;;;;;5093309;28;19990;-79
2022/03/20 10:30:33;;;;;;;;;;;;;;;;;;5074065;28;19916;-79
2022/03/20 10:33:01;;;;;;;;;;;;;;;;;;5086254;28;19913;-79
2022/03/20 10:35:26;;;;;;;;;;;;;;;;;;5074574;28;19994;-79
2022/03/20 10:37:51;;;;;;;;;;;;;;;;;;5082587;28;20012;-79
2022/03/20 10:40:16;;;;;;;;;;;;;;;;;;5069893;28;19909;-79
2022/03/20 10:42:42;;;;;;;;;;;;;;;;;;5085870;28;19909;-79
2022/03/20 10:45:07;;;;;;;;;;;;;;;;;;5091420;28;20279;-79
2022/03/20 10:47:32;;;;;;;;;;;;;;;;;;5091343;28;19916;-79
2022/03/20 10:49:57;;;;;;;;;;;;;;;;;;5091594;28;19920;-79
2022/03/20 10:52:23;;;;;;;;;;;;;;;;;;5070828;28;19908;-79
2022/03/20 10:54:48;;;;;;;;;;;;;;;;;;5068799;28;20575;-79
2022/03/20 10:57:13;;;;;;;;;;;;;;;;;;5090357;28;19923;-79
2022/03/20 10:59:38;;;;;;;;;;;;;;;;;;5072620;28;19915;-79
2022/03/20 11:02:05;;;;;;;;;;;;;;;;;;5090382;28;19908;-79
2022/03/20 11:04:31;;;;;;;;;;;;;;;;;;5081064;28;19912;-79
2022/03/20 11:07:03;;;;;;;;;;;;;;;;;;5059216;28;19912;-79
2022/03/20 11:09:28;;;;;;;;;;;;;;;;;;5070774;28;19915;-79
2022/03/20 11:11:53;;;;;;;;;;;;;;;;;;5070466;28;19912;-79
2022/03/20 11:14:19;;;;;;;;;;;;;;;;;;5069767;28;20440;-79
2022/03/20 11:16:44;;;;;;;;;;;;;;;;;;5091048;28;19912;-79
2022/03/20 11:19:10;;;;;;;;;;;;;;;;;;5090313;28;19908;-79
2022/03/20 11:21:35;;;;;;;;;;;;;;;;;;5091097;28;19966;-79
2022/03/20 11:24:00;;;;;;;;;;;;;;;;;;5056920;28;19958;-79
2022/03/20 11:26:26;;;;;;;;;;;;;;;;;;5070474;28;19924;-79
2022/03/20 11:28:51;;;;;;;;;;;;;;;;;;5051427;28;20430;-79
2022/03/20 11:31:16;;;;;;;;;;;;;;;;;;5052002;28;19909;-79
2022/03/20 11:33:41;;;;;;;;;;;;;;;;;;5051620;28;19908;-79
2022/03/20 11:36:06;;;;;;;;;;;;;;;;;;5072306;28;19924;-79
2022/03/20 11:38:35;;;;;;;;;;;;;;;;;;5076233;28;19920;-79
2022/03/20 11:41:00;;;;;;;;;;;;;;;;;;5093134;28;19919;-78
2022/03/20 11:43:25;;;;;;;;;;;;;;;;;;5066875;28;19920;-79
2022/03/20 11:45:50;;;;;;;;;;;;;;;;;;5107133;28;19912;-79
2022/03/20 11:48:15;;;;;;;;;;;;;;;;;;5110456;28;20382;-79
2022/03/20 11:50:41;;;;;;;;;;;;;;;;;;5092761;28;19938;-79
2022/03/20 11:53:06;;;;;;;;;;;;;;;;;;5073001;28;19977;-79
2022/03/20 11:55:31;;;;;;;;;;;;;;;;;;5091841;28;19920;-80
2022/03/20 11:57:56;;;;;;;;;;;;;;;;;;5090456;28;19915;-80
2022/03/20 12:00:22;;;;;;;;;;;;;;;;;;5083793;28;20326;-80
2022/03/20 12:02:47;;;;;;;;;;;;;;;;;;5070684;28;19913;-80
2022/03/20 12:05:12;;;;;;;;;;;;;;;;;;5066219;28;19912;-80
2022/03/20 12:07:37;;;;;;;;;;;;;;;;;;5090586;28;19931;-80
2022/03/20 12:10:02;;;;;;;;;;;;;;;;;;5092472;28;20423;-80
2022/03/20 12:12:27;;;;;;;;;;;;;;;;;;5073397;28;20340;-80
2022/03/20 12:14:53;;;;;;;;;;;;;;;;;;5064258;28;20402;-80
2022/03/20 12:17:18;;;;;;;;;;;;;;;;;;5075367;28;19981;-80
2022/03/20 12:19:44;;;;;;;;;;;;;;;;;;5093667;28;20011;-80
2022/03/20 12:22:14;;;;;;;;;;;;;;;;;;5075291;28;19908;-80
2022/03/20 12:24:42;;;;;;;;;;;;;;;;;;5056080;28;19908;-79
2022/03/20 12:27:07;;;;;;;;;;;;;;;;;;5093694;28;20337;-80
2022/03/20 12:29:34;;;;;;;;;;;;;;;;;;5086765;28;20459;-79
2022/03/20 12:32:00;;;;;;;;;;;;;;;;;;5072964;28;20303;-79
2022/03/20 12:34:25;;;;;;;;;;;;;;;;;;5074777;28;19908;-80
2022/03/20 12:36:50;;;;;;;;;;;;;;;;;;5093737;28;20401;-80
2022/03/20 12:39:15;;;;;;;;;;;;;;;;;;5075225;28;19912;-79
2022/03/20 12:41:40;;;;;;;;;;;;;;;;;;5076415;28;19918;-80
2022/03/20 12:44:08;;;;;;;;;;;;;;;;;;5075903;28;19915;-80
2022/03/20 12:46:33;;;;;;;;;;;;;;;;;;5079245;28;20428;-80
2022/03/20 12:48:58;;;;;;;;;;;;;;;;;;5076961;28;19948;-80
2022/03/20 12:51:23;;;;;;;;;;;;;;;;;;5064447;28;19999;-80
2022/03/20 12:53:48;;;;;;;;;;;;;;;;;;5088562;28;19973;-80
2022/03/20 12:58:48;;;;;;;;;;;;;;;;;;5085477;28;19912;-79
2022/03/20 13:01:13;;;;;;;;;;;;;;;;;;5077439;28;19954;-79
2022/03/20 13:03:38;;;;;;;;;;;;;;;;;;5086061;28;19920;-79
2022/03/20 13:06:04;;;;;;;;;;;;;;;;;;5095111;28;19973;-79
2022/03/20 13:08:29;;;;;;;;;;;;;;;;;;5095402;28;20257;-79
2022/03/20 13:10:54;;;;;;;;;;;;;;;;;;5095180;28;19912;-80
2022/03/20 13:13:23;;;;;;;;;;;;;;;;;;5085002;28;19913;-80
2022/03/20 13:15:48;;;;;;;;;;;;;;;;;;5070106;28;19916;-80
2022/03/20 13:18:13;;;;;;;;;;;;;;;;;;5076796;28;19919;-80
2022/03/20 13:20:38;;;;;;;;;;;;;;;;;;5076228;28;19952;-80
2022/03/20 13:23:04;;;;;;;;;;;;;;;;;;5067973;28;19916;-80
2022/03/20 13:25:31;;;;;;;;;;;;;;;;;;5057351;28;20011;-79
2022/03/20 13:27:56;;;;;;;;;;;;;;;;;;5094085;28;20363;-78
2022/03/20 13:30:21;;;;;;;;;;;;;;;;;;5076594;28;19934;-80
2022/03/20 13:32:46;;;;;;;;;;;;;;;;;;5070428;28;19908;-79
2022/03/20 13:35:12;;;;;;;;;;;;;;;;;;5055968;28;19912;-79
2022/03/20 13:37:37;;;;;;;;;;;;;;;;;;5075016;28;20378;-80
2022/03/20 13:40:02;;;;;;;;;;;;;;;;;;5094315;28;19958;-80
2022/03/20 13:42:29;;;;;;;;;;;;;;;;;;5073651;28;19917;-80
2022/03/20 13:44:55;;;;;;;;;;;;;;;;;;5093772;28;19923;-80
2022/03/20 13:47:20;;;;;;;;;;;;;;;;;;5076501;28;20287;-81
2022/03/20 13:49:45;;;;;;;;;;;;;;;;;;5094670;28;19962;-81
2022/03/20 13:54:50;;;;;;;;;;;;;;;;;;5071547;28;19916;-80
2022/03/20 13:57:16;;;;;;;;;;;;;;;;;;5054171;28;20026;-80
2022/03/20 13:59:41;;;;;;;;;;;;;;;;;;5053718;28;20012;-81
2022/03/20 14:02:06;;;;;;;;;;;;;;;;;;5082935;28;19912;-81
2022/03/20 14:04:33;;;;;;;;;;;;;;;;;;5078363;28;20382;-81
2022/03/20 14:07:00;;;;;;;;;;;;;;;;;;5091885;28;19909;-81
2022/03/20 14:09:25;;;;;;;;;;;;;;;;;;5091809;28;20151;-80
2022/03/20 14:11:50;;;;;;;;;;;;;;;;;;5090883;28;19908;-80
2022/03/20 14:14:16;;;;;;;;;;;;;;;;;;5073974;28;19973;-81
2022/03/20 14:16:41;;;;;;;;;;;;;;;;;;5069521;28;20432;-81
2022/03/20 14:19:11;;;;;;;;;;;;;;;;;;5074344;28;19965;-80
2022/03/20 14:21:36;;;;;;;;;;;;;;;;;;5062611;28;19908;-81
2022/03/20 14:24:06;;;;;;;;;;;;;;;;;;5069794;28;19958;-81
2022/03/20 14:26:31;;;;;;;;;;;;;;;;;;5066926;28;20010;-81
2022/03/20 14:28:56;;;;;;;;;;;;;;;;;;5092056;28;20011;-80
2022/03/20 14:39:34;;;;;;;;;;;;;;;;;;5093874;28;20267;-80
2022/03/20 14:41:59;;;;;;;;;;;;;;;;;;5075164;28;19924;-80
2022/03/20 14:44:25;;;;;;;;;;;;;;;;;;5074393;28;19965;-80
2022/03/20 14:46:51;;;;;;;;;;;;;;;;;;5060494;28;20010;-80
2022/03/20 14:49:20;;;;;;;;;;;;;;;;;;5058212;28;20007;-80
2022/03/20 14:51:48;;;;;;;;;;;;;;;;;;5089602;28;19916;-80
2022/03/20 14:54:13;;;;;;;;;;;;;;;;;;5075805;28;19909;-81
2022/03/20 14:56:39;;;;;;;;;;;;;;;;;;5054929;28;19913;-80
2022/03/20 14:59:04;;;;;;;;;;;;;;;;;;5091715;28;19912;-80
2022/03/20 15:01:29;;;;;;;;;;;;;;;;;;5072871;28;19919;-80
2022/03/20 15:03:55;;;;;;;;;;;;;;;;;;5073797;28;20025;-80
2022/03/20 15:06:21;;;;;;;;;;;;;;;;;;5085967;28;20580;-80
2022/03/20 15:11:30;;;;;;;;;;;;;;;;;;5082808;28;19938;-81
2022/03/20 15:13:56;;;;;;;;;;;;;;;;;;5082001;28;19917;-81
2022/03/20 15:16:21;;;;;;;;;;;;;;;;;;5075404;28;19912;-81
2022/03/20 15:18:48;;;;;;;;;;;;;;;;;;5070576;28;19908;-80
2022/03/20 15:21:13;;;;;;;;;;;;;;;;;;5075063;28;19909;-81
2022/03/20 15:23:38;;;;;;;;;;;;;;;;;;5084525;28;19919;-81
2022/03/20 15:26:03;;;;;;;;;;;;;;;;;;5090048;28;19996;-81
2022/03/20 15:28:28;;;;;;;;;;;;;;;;;;5108834;28;19912;-80
2022/03/20 15:30:55;;;;;;;;;;;;;;;;;;5113781;28;19933;-80
2022/03/20 15:33:20;;;;;;;;;;;;;;;;;;5091246;28;19912;-80
2022/03/20 15:35:45;;;;;;;;;;;;;;;;;;5076097;28;20007;-79
2022/03/20 15:38:10;;;;;;;;;;;;;;;;;;5103033;28;19934;-79
2022/03/20 15:40:36;;;;;;;;;;;;;;;;;;5071705;28;19947;-80
2022/03/20 15:43:01;;;;;;;;;;;;;;;;;;5078577;28;20478;-80
2022/03/20 15:45:26;;;;;;;;;;;;;;;;;;5071419;28;20407;-81
2022/03/20 15:47:51;;;;;;;;;;;;;;;;;;5092944;28;19970;-80
2022/03/20 15:50:17;;;;;;;;;;;;;;;;;;5075080;28;19912;-80
2022/03/20 15:52:43;;;;;;;;;;;;;;;;;;5074905;28;19919;-79
2022/03/20 15:55:08;;;;;;;;;;;;;;;;;;5072402;28;20303;-80
2022/03/20 15:57:34;;;;;;;;;;;;;;;;;;5072953;28;19952;-80
2022/03/20 15:59:59;;;;;;;;;;;;;;;;;;5067017;28;20005;-80
2022/03/20 16:02:24;;;;;;;;;;;;;;;;;;5055232;28;20382;-80
2022/03/20 16:04:49;;;;;;;;;;;;;;;;;;5069224;28;19924;-83
2022/03/20 16:07:14;;;;;;;;;;;;;;;;;;5110850;28;19912;-80
2022/03/20 16:09:39;;;;;;;;;;;;;;;;;;5069469;28;19916;-80
2022/03/20 16:12:04;;;;;;;;;;;;;;;;;;5079436;28;20425;-79
2022/03/20 16:14:29;;;;;;;;;;;;;;;;;;5081481;28;19919;-80
2022/03/20 16:16:54;;;;;;;;;;;;;;;;;;5072532;28;19920;-80
2022/03/20 16:19:20;;;;;;;;;;;;;;;;;;5111075;28;19911;-80
2022/03/20 16:21:45;;;;;;;;;;;;;;;;;;5095350;28;20041;-80
2022/03/20 16:29:37;;;;;;;;;;;;;;;;;;5111815;28;19933;-80
2022/03/20 16:32:03;;;;;;;;;;;;;;;;;;5093796;28;19908;-80
2022/03/20 16:34:28;;;;;;;;;;;;;;;;;;5094196;28;19908;-80
2022/03/20 16:36:53;;;;;;;;;;;;;;;;;;5093868;28;20002;-80
2022/03/20 16:39:18;;;;;;;;;;;;;;;;;;5111772;28;19912;-80
2022/03/20 16:41:43;;;;;;;;;;;;;;;;;;5111872;28;19907;-80
2022/03/20 16:44:08;;;;;;;;;;;;;;;;;;5112081;28;19912;-80
2022/03/20 16:46:33;;;;;;;;;;;;;;;;;;5093670;28;20002;-80
2022/03/20 16:48:58;;;;;;;;;;;;;;;;;;5093385;28;19961;-80
2022/03/20 16:51:24;;;;;;;;;;;;;;;;;;5093662;28;20268;-80
2022/03/20 16:53:50;;;;;;;;;;;;;;;;;;5093375;28;19960;-80
2022/03/20 16:56:16;;;;;;;;;;;;;;;;;;5114085;28;19934;-80
2022/03/20 16:58:44;;;;;;;;;;;;;;;;;;5096671;28;20270;-80
2022/03/20 17:01:09;;;;;;;;;;;;;;;;;;5097069;28;19907;-79
2022/03/20 17:03:34;;;;;;;;;;;;;;;;;;5115608;28;20010;-80
2022/03/20 17:05:59;;;;;;;;;;;;;;;;;;5096992;28;20442;-80
2022/03/20 17:08:24;;;;;;;;;;;;;;;;;;5096550;28;19919;-80
2022/03/20 17:10:49;;;;;;;;;;;;;;;;;;5096654;28;20002;-80
2022/03/20 17:13:14;;;;;;;;;;;;;;;;;;5097054;28;19908;-80
2022/03/20 17:15:42;;;;;;;;;;;;;;;;;;5115199;28;19919;-80
2022/03/20 17:18:08;;;;;;;;;;;;;;;;;;5096620;28;19922;-80
2022/03/20 17:20:33;;;;;;;;;;;;;;;;;;5096790;28;19994;-80
2022/03/20 17:22:58;;;;;;;;;;;;;;;;;;5097179;28;19930;-80
2022/03/20 17:25:23;;;;;;;;;;;;;;;;;;5115062;28;19908;-80
2022/03/20 17:27:48;;;;;;;;;;;;;;;;;;5096738;28;19912;-80